createdAt,value
2019-01-04T00:02:15.375Z,96.04
2019-01-04T00:04:43.744Z,97.04
2019-01-04T00:07:12.111Z,95.98
2019-01-04T00:09:40.549Z,96.08
2019-01-04T00:12:08.927Z,95.96
2019-01-04T00:14:38.181Z,96.79
2019-01-04T00:17:06.566Z,96.47
2019-01-04T00:19:34.946Z,96.71
2019-01-04T00:22:03.688Z,95.98
2019-01-04T00:24:45.426Z,95.70
2019-01-04T00:27:09.252Z,95.33
2019-01-04T00:29:37.639Z,95.36
2019-01-04T00:32:06.013Z,96.42
2019-01-04T00:34:34.388Z,96.72
2019-01-04T00:37:02.757Z,97.42
2019-01-04T00:39:31.152Z,96.94
2019-01-04T00:41:59.532Z,96.97
2019-01-04T00:44:27.910Z,97.33
2019-01-04T00:46:56.308Z,97.27
2019-01-04T00:49:24.680Z,97.62
2019-01-04T00:51:53.105Z,97.84
2019-01-04T00:54:21.476Z,97.36
2019-01-04T00:57:10.616Z,97.86
2019-01-04T01:00:13.956Z,97.46
2019-01-04T01:03:00.472Z,97.38
2019-01-04T01:05:41.090Z,97.86
2019-01-04T01:08:18.356Z,97.52
2019-01-04T01:10:52.734Z,97.38
2019-01-04T01:13:54.181Z,96.73
2019-01-04T01:16:50.719Z,97.52
2019-01-04T01:19:46.279Z,97.19
2019-01-04T01:22:26.546Z,97.05
2019-01-04T01:25:14.522Z,97.82
2019-01-04T01:28:02.255Z,95.96
2019-01-04T01:30:48.216Z,96.88
2019-01-04T01:33:25.524Z,97.12
2019-01-04T01:36:13.422Z,96.67
2019-01-04T01:39:16.741Z,96.83
2019-01-04T01:41:56.956Z,95.99
2019-01-04T01:44:37.230Z,96.65
2019-01-04T01:47:08.650Z,96.66
2019-01-04T01:49:54.979Z,95.61
2019-01-04T01:52:31.546Z,96.88
2019-01-04T01:54:59.949Z,97.67
2019-01-04T01:57:28.332Z,96.76
2019-01-04T01:59:56.718Z,96.92
2019-01-04T02:02:25.093Z,96.98
2019-01-04T02:04:53.491Z,96.61
2019-01-04T02:07:21.864Z,96.21
2019-01-04T02:09:50.247Z,96.24
2019-01-04T02:12:18.625Z,95.88
2019-01-04T02:14:47.291Z,96.18
2019-01-04T02:17:15.712Z,95.89
2019-01-04T02:19:44.082Z,95.75
2019-01-04T02:22:12.461Z,96.39
2019-01-04T02:24:41.419Z,95.78
2019-01-04T02:27:09.805Z,96.08
2019-01-04T02:29:38.185Z,96.65
2019-01-04T02:32:06.583Z,96.19
2019-01-04T02:34:34.950Z,96.01
2019-01-04T02:37:03.342Z,95.91
2019-01-04T02:39:31.717Z,95.76
2019-01-04T02:42:00.095Z,95.32
2019-01-04T02:44:28.475Z,95.59
2019-01-04T02:46:56.858Z,95.94
2019-01-04T02:49:25.230Z,96.57
2019-01-04T02:51:53.614Z,95.94
2019-01-04T02:54:21.986Z,95.88
2019-01-04T02:56:50.429Z,96.41
2019-01-04T02:59:24.740Z,96.37
2019-01-04T03:01:53.195Z,96.04
2019-01-04T03:04:21.565Z,96.41
2019-01-04T03:06:49.948Z,95.39
2019-01-04T03:09:18.345Z,95.28
2019-01-04T03:11:46.974Z,95.88
2019-01-04T03:14:15.350Z,96.13
2019-01-04T03:16:43.730Z,95.65
2019-01-04T03:19:12.108Z,95.67
2019-01-04T03:21:40.554Z,94.85
2019-01-04T03:24:08.868Z,96.12
2019-01-04T03:26:37.250Z,94.84
2019-01-04T03:29:05.620Z,94.91
2019-01-04T03:31:34.001Z,95.35
2019-01-04T03:34:02.383Z,95.33
2019-01-04T03:36:30.766Z,95.14
2019-01-04T03:38:59.136Z,95.27
2019-01-04T03:41:27.512Z,95.38
2019-01-04T03:43:55.898Z,95.24
2019-01-04T03:46:25.264Z,96.41
2019-01-04T03:48:53.653Z,96.98
2019-01-04T03:51:22.034Z,96.68
2019-01-04T03:53:50.410Z,96.26
2019-01-04T03:56:18.792Z,96.88
2019-01-04T03:58:47.180Z,96.26
2019-01-04T04:01:15.554Z,96.25
2019-01-04T04:03:43.936Z,95.95
2019-01-04T04:06:12.322Z,95.26
2019-01-04T04:08:41.086Z,96.19
2019-01-04T04:11:09.459Z,96.05
2019-01-04T04:13:37.848Z,95.35
2019-01-04T04:16:06.214Z,95.81
2019-01-04T04:18:34.602Z,95.86
2019-01-04T04:21:02.981Z,95.79
2019-01-04T04:23:31.361Z,95.39
2019-01-04T04:25:59.744Z,95.64
2019-01-04T04:28:28.117Z,95.46
2019-01-04T04:30:56.509Z,95.67
2019-01-04T04:33:24.882Z,95.24
2019-01-04T04:35:53.272Z,95.16
2019-01-04T04:38:21.648Z,95.48
2019-01-04T04:40:50.306Z,95.39
2019-01-04T04:43:18.674Z,95.62
2019-01-04T04:45:47.058Z,94.68
2019-01-04T04:48:15.439Z,95.32
2019-01-04T04:50:43.817Z,94.81
2019-01-04T04:53:12.190Z,94.60
2019-01-04T04:55:40.830Z,95.06
2019-01-04T04:58:09.202Z,95.10
2019-01-04T05:00:37.586Z,94.71
2019-01-04T05:03:05.955Z,94.69
2019-01-04T05:05:34.357Z,94.29
2019-01-04T05:08:02.715Z,94.51
2019-01-04T05:10:31.114Z,94.55
2019-01-04T05:12:59.487Z,94.97
2019-01-04T05:15:27.873Z,94.62
2019-01-04T05:17:56.258Z,94.50
2019-01-04T05:20:24.650Z,94.04
2019-01-04T05:22:53.030Z,94.76
2019-01-04T05:25:21.413Z,94.10
2019-01-04T05:27:51.772Z,93.85
2019-01-04T05:30:20.156Z,94.56
2019-01-04T05:32:48.549Z,93.98
2019-01-04T05:35:22.842Z,94.65
2019-01-04T05:37:51.229Z,94.29
2019-01-04T05:40:21.552Z,94.62
2019-01-04T05:42:50.265Z,94.57
2019-01-04T05:45:18.642Z,94.86
2019-01-04T05:47:47.032Z,94.86
2019-01-04T05:50:15.412Z,94.27
2019-01-04T05:52:43.797Z,95.08
2019-01-04T05:55:12.172Z,94.36
2019-01-04T05:57:40.578Z,93.97
2019-01-04T06:00:10.567Z,94.62
2019-01-04T06:02:38.943Z,94.06
2019-01-04T06:05:07.351Z,93.81
2019-01-04T06:07:36.694Z,94.33
2019-01-04T06:10:06.715Z,93.98
2019-01-04T06:12:35.094Z,94.75
2019-01-04T06:15:03.787Z,95.00
2019-01-04T06:17:32.169Z,94.51
2019-01-04T06:20:04.365Z,93.93
2019-01-04T06:22:32.745Z,94.77
2019-01-04T06:25:01.123Z,94.37
2019-01-04T06:27:29.514Z,93.88
2019-01-04T06:29:57.890Z,93.54
2019-01-04T06:32:26.271Z,93.11
2019-01-04T06:34:54.647Z,92.27
2019-01-04T06:37:23.049Z,91.93
2019-01-04T06:39:51.418Z,92.23
2019-01-04T06:42:19.800Z,92.50
2019-01-04T06:44:48.433Z,92.27
2019-01-04T06:47:17.788Z,92.96
2019-01-04T06:49:46.166Z,93.43
2019-01-04T06:52:14.551Z,93.22
2019-01-04T06:55:17.637Z,93.33
2019-01-04T06:57:48.049Z,93.24
2019-01-04T07:00:16.200Z,93.75
2019-01-04T07:02:44.592Z,93.35
2019-01-04T07:05:12.977Z,92.94
2019-01-04T07:07:41.400Z,93.90
2019-01-04T07:10:10.546Z,93.00
2019-01-04T07:12:39.000Z,92.73
2019-01-04T07:15:07.655Z,93.32
2019-01-04T07:17:36.036Z,92.54
2019-01-04T07:20:05.369Z,93.85
2019-01-04T07:22:33.751Z,94.14
2019-01-04T07:25:02.150Z,94.00
2019-01-04T07:27:30.542Z,93.48
2019-01-04T07:29:58.922Z,93.67
2019-01-04T07:32:27.310Z,93.97
2019-01-04T07:34:55.701Z,94.15
2019-01-04T07:37:24.079Z,92.97
2019-01-04T07:39:52.457Z,94.13
2019-01-04T07:42:20.842Z,93.78
2019-01-04T07:44:49.231Z,93.66
2019-01-04T07:47:17.601Z,94.11
2019-01-04T07:49:45.990Z,93.41
2019-01-04T07:52:14.400Z,94.21
2019-01-04T07:54:42.786Z,93.36
2019-01-04T07:57:11.165Z,94.02
2019-01-04T07:59:39.554Z,93.93
2019-01-04T08:02:33.600Z,93.40
2019-01-04T08:05:02.208Z,93.54
2019-01-04T08:07:30.671Z,94.00
2019-01-04T08:09:59.064Z,94.16
2019-01-04T08:12:27.447Z,93.75
2019-01-04T08:14:55.819Z,93.46
2019-01-04T08:17:24.208Z,93.23
2019-01-04T08:19:55.600Z,92.97
2019-01-04T08:22:23.978Z,92.55
2019-01-04T08:24:52.597Z,92.78
2019-01-04T08:27:20.989Z,93.05
2019-01-04T08:29:49.358Z,93.13
2019-01-04T08:32:17.734Z,93.82
2019-01-04T08:34:46.128Z,93.11
2019-01-04T08:37:14.507Z,92.68
2019-01-04T08:39:42.919Z,93.02
2019-01-04T08:42:11.301Z,92.96
2019-01-04T08:44:39.681Z,92.30
2019-01-04T08:47:08.126Z,93.00
2019-01-04T08:49:36.514Z,93.41
2019-01-04T08:52:04.897Z,92.87
2019-01-04T08:54:33.277Z,93.30
2019-01-04T08:57:01.657Z,93.35
2019-01-04T08:59:30.308Z,92.90
2019-01-04T09:01:58.690Z,93.35
2019-01-04T09:04:27.067Z,93.55
2019-01-04T09:06:55.441Z,92.90
2019-01-04T09:09:23.829Z,93.23
2019-01-04T09:11:52.209Z,92.46
2019-01-04T09:14:23.628Z,93.50
2019-01-04T09:16:52.010Z,92.64
2019-01-04T09:19:20.466Z,92.26
2019-01-04T09:21:48.860Z,92.37
2019-01-04T09:24:17.244Z,92.26
2019-01-04T09:26:45.621Z,91.34
2019-01-04T09:29:14.009Z,91.33
2019-01-04T09:31:42.401Z,100.00
2019-01-04T09:34:10.791Z,100.00
2019-01-04T09:36:50.102Z,87.25
2019-01-04T09:39:18.504Z,96.57
2019-01-04T09:41:47.020Z,83.03
2019-01-04T09:44:15.413Z,83.04
2019-01-04T09:46:49.555Z,85.16
2019-01-04T09:49:17.947Z,81.92
2019-01-04T09:51:46.321Z,72.04
2019-01-04T09:54:14.710Z,77.13
2019-01-04T09:56:43.084Z,77.03
2019-01-04T09:59:12.358Z,79.91
2019-01-04T10:01:40.785Z,83.33
2019-01-04T10:04:09.171Z,86.21
2019-01-04T10:06:38.463Z,86.65
2019-01-04T10:09:07.449Z,87.65
2019-01-04T10:11:35.838Z,87.62
2019-01-04T10:14:04.209Z,88.39
2019-01-04T10:16:32.600Z,89.46
2019-01-04T10:19:01.000Z,88.87
2019-01-04T10:21:29.393Z,89.87
2019-01-04T10:23:57.770Z,89.81
2019-01-04T10:26:26.168Z,90.85
2019-01-04T10:28:54.558Z,91.25
2019-01-04T10:31:22.951Z,91.26
2019-01-04T10:33:51.477Z,92.06
2019-01-04T10:36:19.858Z,92.72
2019-01-04T10:38:48.244Z,94.33
2019-01-04T10:41:16.623Z,94.80
2019-01-04T10:43:45.016Z,95.08
2019-01-04T10:46:27.266Z,95.93
2019-01-04T10:48:55.665Z,95.77
2019-01-04T10:51:24.059Z,95.51
2019-01-04T10:53:52.467Z,96.27
2019-01-04T10:56:20.845Z,95.55
2019-01-04T10:58:49.245Z,95.17
2019-01-04T11:01:17.624Z,95.52
2019-01-04T11:03:46.009Z,95.85
2019-01-04T11:06:14.393Z,95.36
2019-01-04T11:08:42.874Z,95.37
2019-01-04T11:11:11.257Z,95.66
2019-01-04T11:13:39.950Z,96.11
2019-01-04T11:16:08.371Z,95.66
2019-01-04T11:18:37.109Z,95.81
2019-01-04T11:21:06.338Z,95.89
2019-01-04T11:23:58.322Z,96.13
2019-01-04T11:26:35.521Z,96.65
2019-01-04T11:29:41.051Z,96.88
2019-01-04T11:32:12.518Z,96.36
2019-01-04T11:34:49.542Z,96.48
2019-01-04T11:37:26.974Z,96.36
2019-01-04T11:40:13.590Z,95.77
2019-01-04T11:42:48.026Z,96.24
2019-01-04T11:45:34.429Z,95.70
2019-01-04T11:48:14.600Z,96.49
2019-01-04T11:51:04.042Z,95.81
2019-01-04T11:53:32.436Z,96.46
2019-01-04T11:56:00.813Z,96.10
2019-01-04T11:58:29.201Z,96.10
2019-01-04T12:00:57.649Z,95.35
2019-01-04T12:03:26.034Z,95.33
2019-01-04T12:05:54.439Z,94.97
2019-01-04T12:08:22.821Z,95.50
2019-01-04T12:10:58.252Z,95.33
2019-01-04T12:13:26.641Z,95.33
2019-01-04T12:15:55.019Z,94.84
2019-01-04T12:18:23.400Z,95.36
2019-01-04T12:20:51.775Z,94.45
2019-01-04T12:23:20.178Z,94.67
2019-01-04T12:25:48.667Z,94.97
2019-01-04T12:28:36.637Z,94.25
2019-01-04T12:31:24.353Z,94.17
2019-01-04T12:33:52.739Z,93.39
2019-01-04T12:36:21.123Z,92.82
2019-01-04T12:38:49.500Z,93.21
2019-01-04T12:41:17.889Z,92.85
2019-01-04T12:43:47.948Z,93.17
2019-01-04T12:46:16.611Z,92.92
2019-01-04T12:48:44.983Z,92.76
2019-01-04T12:51:13.373Z,92.11
2019-01-04T12:54:01.079Z,91.42
2019-01-04T12:56:29.457Z,91.61
2019-01-04T12:58:57.834Z,90.96
2019-01-04T13:01:26.218Z,91.03
2019-01-04T13:03:54.597Z,91.17
2019-01-04T13:06:22.993Z,91.15
2019-01-04T13:08:51.390Z,91.27
2019-01-04T13:11:19.757Z,91.25
2019-01-04T13:13:48.150Z,91.54
2019-01-04T13:16:35.859Z,90.73
2019-01-04T13:19:04.311Z,91.52
2019-01-04T13:21:32.695Z,91.77
2019-01-04T13:24:01.083Z,92.49
2019-01-04T13:26:29.460Z,92.52
2019-01-04T13:28:57.847Z,92.60
2019-01-04T13:31:26.227Z,92.20
2019-01-04T13:33:54.605Z,92.16
2019-01-04T13:36:22.983Z,91.85
2019-01-04T13:38:51.371Z,92.01
2019-01-04T13:41:19.746Z,92.50
2019-01-04T13:43:48.128Z,92.15
2019-01-04T13:46:16.508Z,91.88
2019-01-04T13:48:44.890Z,92.05
2019-01-04T13:51:13.287Z,92.57
2019-01-04T13:53:41.673Z,92.15
2019-01-04T13:56:10.075Z,92.08
2019-01-04T13:58:38.455Z,91.32
2019-01-04T14:01:06.846Z,91.60
2019-01-04T14:03:54.566Z,91.81
2019-01-04T14:06:22.946Z,92.54
2019-01-04T14:08:51.331Z,91.78
2019-01-04T14:11:19.710Z,91.13
2019-01-04T14:13:48.099Z,91.72
2019-01-04T14:16:16.511Z,91.81
2019-01-04T14:18:44.880Z,91.36
2019-01-04T14:21:13.267Z,91.94
2019-01-04T14:23:41.702Z,91.84
2019-01-04T14:26:10.074Z,91.54
2019-01-04T14:28:38.479Z,90.95
2019-01-04T14:33:55.961Z,92.23
2019-01-04T14:36:24.334Z,91.83
2019-01-04T14:38:52.824Z,91.89
2019-01-04T14:41:23.401Z,91.98
2019-01-04T14:43:51.355Z,91.31
2019-01-04T14:46:22.310Z,91.38
2019-01-04T14:48:50.698Z,91.72
2019-01-04T14:51:19.394Z,91.25
2019-01-04T14:53:47.823Z,91.45
2019-01-04T14:56:16.199Z,91.61
2019-01-04T14:58:44.590Z,91.40
2019-01-04T15:01:12.972Z,91.99
2019-01-04T15:03:41.359Z,91.84
2019-01-04T15:06:09.744Z,92.38
2019-01-04T15:08:38.124Z,93.01
2019-01-04T15:11:06.524Z,93.63
2019-01-04T15:13:34.903Z,93.39
2019-01-04T15:16:03.289Z,93.40
2019-01-04T15:18:31.659Z,92.91
2019-01-04T15:21:00.058Z,93.33
2019-01-04T15:23:28.440Z,93.44
2019-01-04T15:25:57.073Z,93.99
2019-01-04T15:28:25.453Z,94.02
2019-01-04T15:30:53.839Z,93.75
2019-01-04T15:33:22.225Z,93.34
2019-01-04T15:35:50.617Z,93.36
2019-01-04T15:38:19.244Z,93.11
2019-01-04T15:40:47.640Z,93.56
2019-01-04T15:43:16.019Z,93.92
2019-01-04T15:45:44.397Z,93.80
2019-01-04T15:48:12.801Z,94.29
2019-01-04T15:50:41.195Z,93.69
2019-01-04T15:53:09.568Z,93.67
2019-01-04T15:55:38.012Z,93.50
2019-01-04T15:58:25.987Z,94.02
2019-01-04T16:00:54.352Z,93.98
2019-01-04T16:03:42.084Z,94.73
2019-01-04T16:06:10.466Z,94.63
2019-01-04T16:08:38.856Z,94.69
2019-01-04T16:11:07.237Z,94.60
2019-01-04T16:13:35.623Z,94.46
2019-01-04T16:16:04.079Z,94.57
2019-01-04T16:18:32.539Z,94.96
2019-01-04T16:21:00.924Z,94.47
2019-01-04T16:23:29.316Z,95.26
2019-01-04T16:25:57.691Z,94.95
2019-01-04T16:28:26.162Z,95.68
2019-01-04T16:30:54.544Z,95.58
2019-01-04T16:33:22.928Z,95.55
2019-01-04T16:35:51.304Z,95.63
2019-01-04T16:38:39.029Z,96.34
2019-01-04T16:41:07.427Z,96.24
2019-01-04T16:43:35.805Z,95.99
2019-01-04T16:48:53.354Z,95.33
2019-01-04T16:54:10.843Z,95.93
2019-01-04T16:56:39.229Z,95.81
2019-01-04T16:59:07.613Z,95.68
2019-01-04T17:01:36.065Z,95.48
2019-01-04T17:04:04.442Z,95.29
2019-01-04T17:06:52.161Z,94.86
2019-01-04T17:09:21.029Z,95.31
2019-01-04T17:11:49.428Z,95.25
2019-01-04T17:14:17.803Z,95.32
2019-01-04T17:16:46.190Z,95.91
2019-01-04T17:19:14.567Z,95.59
2019-01-04T17:21:42.962Z,95.38
2019-01-04T17:24:11.344Z,94.28
2019-01-04T17:26:39.744Z,94.08
2019-01-04T17:29:08.137Z,94.38
2019-01-04T17:31:36.526Z,94.33
2019-01-04T17:34:04.899Z,93.91
2019-01-04T17:36:33.298Z,93.39
2019-01-04T17:39:21.016Z,92.71
2019-01-04T17:41:49.404Z,93.79
2019-01-04T17:44:37.116Z,93.89
2019-01-04T17:47:25.096Z,93.49
2019-01-04T17:49:53.513Z,93.69
2019-01-04T17:52:34.080Z,93.35
2019-01-04T17:55:02.464Z,93.61
2019-01-04T17:57:30.874Z,93.65
2019-01-04T17:59:59.243Z,94.07
2019-01-04T18:02:27.634Z,93.77
2019-01-04T18:04:56.031Z,93.49
2019-01-04T18:07:24.422Z,93.46
2019-01-04T18:10:12.142Z,93.36
2019-01-04T18:13:00.260Z,93.29
2019-01-04T18:15:28.656Z,93.22
2019-01-04T18:18:16.467Z,93.37
2019-01-04T18:20:44.860Z,93.73
2019-01-04T18:23:13.233Z,93.20
2019-01-04T18:25:41.805Z,93.66
2019-01-04T18:28:10.229Z,94.08
2019-01-04T18:30:57.938Z,93.80
2019-01-04T18:33:26.341Z,94.28
2019-01-04T18:35:54.720Z,94.06
2019-01-04T18:38:23.102Z,94.88
2019-01-04T18:40:51.483Z,94.29
2019-01-04T18:43:20.660Z,94.43
2019-01-04T18:46:25.745Z,93.86
2019-01-04T18:48:54.127Z,94.37
2019-01-04T18:51:22.518Z,94.27
2019-01-04T18:53:51.320Z,94.28
2019-01-04T18:56:21.361Z,93.94
2019-01-04T18:58:49.885Z,94.24
2019-01-04T19:01:18.256Z,93.96
2019-01-04T19:03:46.644Z,93.51
2019-01-04T19:06:15.012Z,93.28
2019-01-04T19:08:44.919Z,93.06
2019-01-04T19:11:15.261Z,93.73
2019-01-04T19:13:43.639Z,94.08
2019-01-04T19:16:12.041Z,94.09
2019-01-04T19:18:41.423Z,93.51
2019-01-04T19:21:11.766Z,94.22
2019-01-04T19:23:40.142Z,94.72
2019-01-04T19:26:08.526Z,95.07
2019-01-04T19:28:36.919Z,95.31
2019-01-04T19:31:05.304Z,95.88
2019-01-04T19:33:33.678Z,96.03
2019-01-04T19:36:02.076Z,96.13
2019-01-04T19:38:30.451Z,96.59
2019-01-04T19:40:58.832Z,96.68
2019-01-04T19:43:28.176Z,97.82
2019-01-04T19:45:56.552Z,97.47
2019-01-04T19:48:24.944Z,98.27
2019-01-04T19:50:53.322Z,99.32
2019-01-04T19:53:21.708Z,99.50
2019-01-04T19:55:50.083Z,99.58
2019-01-04T19:58:18.468Z,99.33
2019-01-04T20:00:46.853Z,99.62
2019-01-04T20:03:15.235Z,99.47
2019-01-04T20:05:54.177Z,98.99
2019-01-04T20:08:59.004Z,98.22
2019-01-04T20:11:54.032Z,97.60
2019-01-04T20:15:12.458Z,97.52
2019-01-04T20:17:51.801Z,97.35
2019-01-04T20:20:30.831Z,98.21
2019-01-04T20:23:12.931Z,98.34
2019-01-04T20:25:45.928Z,98.53
2019-01-04T20:28:27.513Z,98.60
2019-01-04T20:31:14.008Z,99.18
2019-01-04T20:33:47.057Z,98.57
2019-01-04T20:36:23.002Z,98.89
2019-01-04T20:38:59.282Z,99.36
2019-01-04T20:41:29.313Z,99.87
2019-01-04T20:44:10.303Z,99.91
2019-01-04T20:46:40.334Z,99.41
2019-01-04T20:49:14.070Z,99.97
2019-01-04T20:52:00.254Z,100.00
2019-01-04T20:54:30.313Z,100.00
2019-01-04T20:57:07.707Z,100.00
2019-01-04T20:59:37.735Z,100.00
2019-01-04T21:02:10.174Z,100.00
2019-01-04T21:04:49.182Z,100.00
2019-01-04T21:07:19.210Z,100.00
2019-01-04T21:10:05.117Z,100.00
2019-01-04T21:12:44.150Z,100.00
2019-01-04T21:15:14.205Z,100.00
2019-01-04T21:17:44.230Z,100.00
2019-01-04T21:20:14.264Z,100.00
2019-01-04T21:22:56.246Z,100.00
2019-01-04T21:25:41.326Z,100.00
2019-01-04T21:28:26.279Z,100.00
2019-01-04T21:31:12.772Z,100.00
2019-01-04T21:33:59.060Z,100.00
2019-01-04T21:36:29.073Z,100.00
2019-01-04T21:39:08.371Z,100.00
2019-01-04T21:41:44.377Z,100.00
2019-01-04T21:44:32.553Z,100.00
2019-01-04T21:47:18.681Z,100.00
2019-01-04T21:49:51.422Z,100.00
2019-01-04T21:52:33.356Z,100.00
2019-01-04T21:55:06.075Z,100.00
2019-01-04T21:57:38.871Z,100.00
2019-01-04T22:00:16.626Z,100.00
2019-01-04T22:03:03.014Z,100.00
2019-01-04T22:05:33.085Z,100.00
2019-01-04T22:08:11.867Z,100.00
2019-01-04T22:10:58.149Z,100.00
2019-01-04T22:13:33.656Z,100.00
2019-01-04T22:16:06.496Z,100.00
2019-01-04T22:18:36.870Z,100.00
2019-01-04T22:21:15.688Z,100.00
2019-01-04T22:24:01.069Z,100.00
2019-01-04T22:26:47.326Z,100.00
2019-01-04T22:29:34.977Z,100.00
2019-01-04T22:32:07.712Z,100.00
2019-01-04T22:34:49.341Z,100.00
2019-01-04T22:37:34.341Z,100.00
2019-01-04T22:40:16.198Z,100.00
2019-01-04T22:43:01.440Z,100.00
2019-01-04T22:45:34.251Z,100.00
2019-01-04T22:48:07.484Z,100.00
2019-01-04T22:50:40.212Z,100.00
2019-01-04T22:53:29.233Z,100.00
2019-01-04T22:56:05.010Z,100.00
2019-01-04T22:58:37.759Z,100.00
2019-01-04T23:01:08.811Z,100.00
2019-01-04T23:03:41.892Z,100.00
2019-01-04T23:06:28.051Z,100.00
2019-01-04T23:09:09.056Z,100.00
2019-01-04T23:11:55.239Z,100.00
2019-01-04T23:14:32.245Z,100.00
2019-01-04T23:17:14.022Z,99.99
2019-01-04T23:20:00.199Z,99.96
2019-01-04T23:22:58.042Z,100.00
2019-01-04T23:25:28.025Z,100.00
2019-01-04T23:27:58.043Z,99.94
2019-01-04T23:30:32.689Z,99.94
2019-01-04T23:33:17.416Z,100.00
2019-01-04T23:36:05.692Z,100.00
2019-01-04T23:38:51.900Z,100.00
2019-01-04T23:41:21.934Z,100.00
2019-01-04T23:43:52.010Z,100.00
2019-01-04T23:46:28.261Z,100.00
2019-01-04T23:48:58.434Z,100.00
2019-01-04T23:51:46.595Z,100.00
2019-01-04T23:54:33.772Z,100.00
2019-01-04T23:57:06.487Z,100.00
2019-01-04T23:59:42.079Z,100.00
